Metar z pełnej godziny Komunikat METAR ze strony awiacja.imgw.pl Metar G00 EPMO METAR EPMO 220600Z 25019KT 4500 -RA BR OVC006 02/02 Q1021 =